Time;durP1;ratioP1;P1;durP2;ratioP2;P2;SDS_P1;SDS_P2;PMS_P1;PMS_P2;Temp;Humidity;BMP_temperature;BMP_pressure;BME280_temperature;BME280_humidity;BME280_pressure;Samples;Min_cycle;Max_cycle;Signal;HPM_P1;HPM_P2
2022/03/25 00:01:58;;;;;;;118.68;64.25;;;;;;;;;;5083034;28;20395;-79
2022/03/25 00:04:24;;;;;;;109.30;63.22;;;;;;;;;;5063950;28;20049;-79
2022/03/25 00:06:50;;;;;;;108.72;63.30;;;;;;;;;;5081067;28;20041;-80
2022/03/25 00:09:16;;;;;;;108.47;60.75;;;;;;;;;;5064320;28;20409;-78
2022/03/25 00:11:42;;;;;;;113.90;61.50;;;;;;;;;;5081450;28;20067;-78
2022/03/25 00:14:09;;;;;;;108.10;61.65;;;;;;;;;;5081689;28;20041;-78
2022/03/25 00:16:35;;;;;;;105.35;60.40;;;;;;;;;;5080865;28;20051;-79
2022/03/25 00:19:03;;;;;;;105.57;61.50;;;;;;;;;;5081738;28;20033;-80
2022/03/25 00:21:29;;;;;;;109.82;61.38;;;;;;;;;;5064247;28;20037;-79
2022/03/25 00:23:55;;;;;;;109.22;62.25;;;;;;;;;;5081434;28;20059;-79
2022/03/25 00:26:21;;;;;;;107.57;60.28;;;;;;;;;;5081656;28;20037;-79
2022/03/25 00:28:47;;;;;;;105.63;61.15;;;;;;;;;;5065360;28;20079;-79
2022/03/25 00:31:13;;;;;;;105.55;59.83;;;;;;;;;;5063308;28;20178;-80
2022/03/25 00:33:42;;;;;;;109.38;62.08;;;;;;;;;;5079794;28;20095;-80
2022/03/25 00:36:10;;;;;;;103.43;61.03;;;;;;;;;;5080287;28;20052;-79
2022/03/25 00:38:36;;;;;;;114.28;63.03;;;;;;;;;;5080795;28;20112;-79
2022/03/25 00:41:02;;;;;;;110.93;61.33;;;;;;;;;;5063880;28;20048;-79
2022/03/25 00:43:28;;;;;;;103.47;60.75;;;;;;;;;;5063451;28;20413;-79
2022/03/25 00:45:54;;;;;;;115.05;61.38;;;;;;;;;;5064333;28;20139;-78
2022/03/25 00:48:20;;;;;;;104.80;61.40;;;;;;;;;;5064930;28;20040;-79
2022/03/25 00:50:46;;;;;;;104.20;60.08;;;;;;;;;;5074268;28;20096;-79
2022/03/25 00:53:12;;;;;;;107.45;60.00;;;;;;;;;;5071851;28;20056;-80
2022/03/25 00:55:38;;;;;;;108.57;60.70;;;;;;;;;;5065109;28;20037;-79
2022/03/25 00:58:04;;;;;;;105.88;60.20;;;;;;;;;;5065057;28;20036;-80
2022/03/25 01:00:30;;;;;;;106.80;61.15;;;;;;;;;;5087124;28;20036;-80
2022/03/25 01:02:56;;;;;;;106.75;59.30;;;;;;;;;;5074497;28;20069;-79
2022/03/25 01:05:22;;;;;;;106.35;58.92;;;;;;;;;;5088257;28;20032;-79
2022/03/25 01:07:48;;;;;;;106.95;59.63;;;;;;;;;;5063750;28;20424;-82
2022/03/25 01:10:14;;;;;;;111.22;60.47;;;;;;;;;;5061533;28;20052;-82
2022/03/25 01:12:41;;;;;;;106.60;59.50;;;;;;;;;;5062091;28;20045;-81
2022/03/25 01:15:07;;;;;;;99.78;57.85;;;;;;;;;;5062084;28;20045;-80
2022/03/25 01:17:33;;;;;;;101.70;59.38;;;;;;;;;;5076847;28;20052;-81
2022/03/25 01:19:59;;;;;;;108.38;61.63;;;;;;;;;;5058493;28;20037;-81
2022/03/25 01:22:25;;;;;;;106.07;59.03;;;;;;;;;;5058589;28;20033;-79
2022/03/25 01:24:51;;;;;;;103.72;58.50;;;;;;;;;;5057160;28;20491;-82
2022/03/25 01:27:17;;;;;;;109.28;61.15;;;;;;;;;;5091749;28;20029;-80
2022/03/25 01:29:43;;;;;;;108.25;61.85;;;;;;;;;;5069993;28;20208;-81
2022/03/25 01:32:10;;;;;;;103.97;60.25;;;;;;;;;;5078863;28;20068;-82
2022/03/25 01:34:37;;;;;;;104.63;60.03;;;;;;;;;;5076583;28;20062;-81
2022/03/25 01:37:03;;;;;;;109.38;60.28;;;;;;;;;;5073655;28;20120;-79
2022/03/25 01:39:29;;;;;;;107.65;60.75;;;;;;;;;;5064595;28;20104;-80
2022/03/25 01:41:55;;;;;;;113.20;61.22;;;;;;;;;;5081358;28;20080;-81
2022/03/25 01:44:27;;;;;;;108.80;63.00;;;;;;;;;;5066476;28;20029;-81
2022/03/25 01:46:54;;;;;;;106.65;60.92;;;;;;;;;;5080962;28;20444;-80
2022/03/25 01:49:20;;;;;;;108.53;61.70;;;;;;;;;;5065074;28;20051;-81
2022/03/25 01:51:46;;;;;;;105.50;59.85;;;;;;;;;;5062864;28;20040;-81
2022/03/25 01:54:20;;;;;;;110.63;61.47;;;;;;;;;;5079075;28;20110;-81
2022/03/25 01:56:46;;;;;;;102.97;60.67;;;;;;;;;;5079882;28;20099;-81
2022/03/25 01:59:12;;;;;;;108.40;61.65;;;;;;;;;;5079089;28;20037;-81
2022/03/25 02:01:40;;;;;;;111.68;59.55;;;;;;;;;;5062050;28;20452;-81
2022/03/25 02:04:06;;;;;;;110.57;62.30;;;;;;;;;;5062827;28;20041;-80
2022/03/25 02:06:32;;;;;;;104.95;58.60;;;;;;;;;;5064362;28;20055;-81
2022/03/25 02:08:58;;;;;;;109.35;61.70;;;;;;;;;;5063649;28;20037;-80
2022/03/25 02:11:24;;;;;;;102.78;57.88;;;;;;;;;;5065279;28;20055;-80
2022/03/25 02:13:50;;;;;;;107.45;59.83;;;;;;;;;;5067595;28;20032;-79
2022/03/25 02:16:16;;;;;;;111.97;59.55;;;;;;;;;;5093215;28;20041;-80
2022/03/25 02:18:42;;;;;;;107.32;59.58;;;;;;;;;;5093501;28;20041;-80
2022/03/25 02:21:08;;;;;;;106.68;58.28;;;;;;;;;;5093668;28;20048;-80
2022/03/25 02:23:34;;;;;;;103.35;57.80;;;;;;;;;;5077214;28;20059;-80
2022/03/25 02:26:00;;;;;;;105.80;59.90;;;;;;;;;;5077028;28;20090;-80
2022/03/25 02:28:26;;;;;;;102.15;57.88;;;;;;;;;;5076058;28;20028;-80
2022/03/25 02:30:52;;;;;;;107.28;59.90;;;;;;;;;;5069543;28;20037;-81
2022/03/25 02:33:18;;;;;;;111.93;60.40;;;;;;;;;;5094896;28;20032;-80
2022/03/25 02:35:48;;;;;;;106.55;60.95;;;;;;;;;;5078260;28;20093;-79
2022/03/25 02:38:15;;;;;;;110.38;59.78;;;;;;;;;;5067646;28;20047;-82
2022/03/25 02:40:41;;;;;;;108.38;59.33;;;;;;;;;;5087012;28;20025;-79
2022/03/25 02:43:07;;;;;;;110.53;60.53;;;;;;;;;;5079063;28;20040;-78
2022/03/25 02:45:33;;;;;;;106.13;59.17;;;;;;;;;;5093602;28;20067;-79
2022/03/25 02:48:01;;;;;;;107.65;60.35;;;;;;;;;;5090703;28;20037;-81
2022/03/25 02:50:27;;;;;;;111.10;59.45;;;;;;;;;;5060449;28;20045;-81
2022/03/25 02:52:54;;;;;;;109.05;59.80;;;;;;;;;;5078358;28;20047;-81
2022/03/25 02:55:20;;;;;;;109.05;60.10;;;;;;;;;;5059926;28;20032;-80
2022/03/25 02:57:46;;;;;;;105.97;61.70;;;;;;;;;;5059475;28;20037;-80
2022/03/25 03:00:12;;;;;;;108.13;59.35;;;;;;;;;;5059946;28;20087;-81
2022/03/25 03:02:38;;;;;;;114.13;59.95;;;;;;;;;;5063745;28;20032;-80
2022/03/25 03:05:06;;;;;;;106.03;59.38;;;;;;;;;;5085376;28;20049;-80
2022/03/25 03:07:32;;;;;;;113.20;60.65;;;;;;;;;;5068455;28;20041;-80
2022/03/25 03:09:58;;;;;;;111.82;60.70;;;;;;;;;;5085167;28;20032;-80
2022/03/25 03:12:25;;;;;;;119.88;63.15;;;;;;;;;;5085631;28;20071;-80
2022/03/25 03:14:51;;;;;;;115.70;61.55;;;;;;;;;;5073731;28;20040;-80
2022/03/25 03:17:17;;;;;;;110.00;60.20;;;;;;;;;;5081049;28;20037;-80
2022/03/25 03:19:43;;;;;;;107.55;60.75;;;;;;;;;;5079196;28;20140;-81
2022/03/25 03:22:10;;;;;;;110.65;62.10;;;;;;;;;;5061555;28;20063;-80
2022/03/25 03:24:36;;;;;;;114.28;61.88;;;;;;;;;;5062593;28;20037;-82
2022/03/25 03:27:02;;;;;;;117.63;61.53;;;;;;;;;;5063426;28;20049;-81
2022/03/25 03:29:29;;;;;;;114.30;60.38;;;;;;;;;;5081211;28;20060;-81
2022/03/25 03:31:55;;;;;;;115.03;61.17;;;;;;;;;;5061969;28;20045;-80
2022/03/25 03:34:21;;;;;;;110.25;61.97;;;;;;;;;;5078918;28;20052;-80
2022/03/25 03:36:47;;;;;;;112.38;62.38;;;;;;;;;;5078680;28;20371;-81
2022/03/25 03:39:13;;;;;;;112.88;63.35;;;;;;;;;;5062905;28;20045;-81
2022/03/25 03:41:39;;;;;;;109.50;62.05;;;;;;;;;;5079313;28;20043;-81
2022/03/25 03:44:06;;;;;;;115.45;62.17;;;;;;;;;;5062024;28;20040;-80
2022/03/25 03:46:33;;;;;;;112.20;59.65;;;;;;;;;;5062305;28;20037;-79
2022/03/25 03:48:59;;;;;;;107.75;58.58;;;;;;;;;;5078383;28;20051;-80
2022/03/25 03:51:25;;;;;;;104.80;60.35;;;;;;;;;;5079249;28;20044;-81
2022/03/25 03:53:51;;;;;;;105.82;59.40;;;;;;;;;;5065155;28;20061;-80
2022/03/25 03:56:17;;;;;;;107.40;60.58;;;;;;;;;;5084004;28;20108;-80
2022/03/25 03:58:42;;;;;;;112.90;62.97;;;;;;;;;;5063737;28;20052;-81
2022/03/25 04:01:10;;;;;;;108.00;59.13;;;;;;;;;;5060751;28;20360;-82
2022/03/25 04:03:36;;;;;;;106.95;59.97;;;;;;;;;;5061798;28;20091;-82
2022/03/25 04:06:02;;;;;;;115.38;60.85;;;;;;;;;;5078351;28;20071;-82
2022/03/25 04:08:28;;;;;;;114.05;60.67;;;;;;;;;;5077901;28;20041;-81
2022/03/25 04:10:54;;;;;;;117.00;59.67;;;;;;;;;;5061038;28;20045;-81
2022/03/25 04:13:20;;;;;;;110.85;61.05;;;;;;;;;;5077331;28;20103;-81
2022/03/25 04:15:46;;;;;;;113.75;61.40;;;;;;;;;;5060054;28;20040;-81
2022/03/25 04:18:12;;;;;;;126.82;61.70;;;;;;;;;;5076125;28;20037;-81
2022/03/25 04:20:38;;;;;;;114.65;60.35;;;;;;;;;;5060084;28;20088;-81
2022/03/25 04:23:04;;;;;;;110.10;59.97;;;;;;;;;;5077167;28;20037;-81
2022/03/25 04:25:30;;;;;;;117.05;60.60;;;;;;;;;;5064397;28;20044;-81
2022/03/25 04:27:56;;;;;;;109.18;57.85;;;;;;;;;;5063114;28;20045;-81
2022/03/25 04:30:30;;;;;;;106.18;57.58;;;;;;;;;;5066110;28;20052;-80
2022/03/25 04:32:57;;;;;;;107.43;58.22;;;;;;;;;;5072744;28;20043;-80
2022/03/25 04:35:24;;;;;;;110.93;58.13;;;;;;;;;;5090689;28;20067;-80
2022/03/25 04:37:50;;;;;;;107.55;58.85;;;;;;;;;;5084039;28;20056;-80
2022/03/25 04:40:17;;;;;;;116.20;60.75;;;;;;;;;;5077796;28;20033;-79
2022/03/25 04:42:44;;;;;;;108.40;58.40;;;;;;;;;;5074906;28;20093;-82
2022/03/25 04:45:10;;;;;;;103.55;56.42;;;;;;;;;;5060498;28;20056;-79
2022/03/25 04:47:36;;;;;;;102.97;57.28;;;;;;;;;;5057746;28;20063;-79
2022/03/25 04:50:02;;;;;;;108.15;56.80;;;;;;;;;;5058505;28;20444;-79
2022/03/25 04:52:28;;;;;;;109.40;59.05;;;;;;;;;;5058993;28;20061;-79
2022/03/25 04:54:54;;;;;;;104.68;57.95;;;;;;;;;;5058940;28;20048;-80
2022/03/25 04:57:20;;;;;;;109.00;59.47;;;;;;;;;;5059583;28;20466;-79
2022/03/25 04:59:47;;;;;;;110.53;58.17;;;;;;;;;;5076880;28;20052;-79
2022/03/25 05:02:13;;;;;;;119.78;60.95;;;;;;;;;;5061069;28;20048;-79
2022/03/25 05:04:39;;;;;;;115.57;61.08;;;;;;;;;;5059343;28;20068;-80
2022/03/25 05:07:05;;;;;;;117.63;59.95;;;;;;;;;;5060465;28;20041;-79
2022/03/25 05:09:31;;;;;;;115.20;58.33;;;;;;;;;;5060202;28;20499;-79
2022/03/25 05:11:57;;;;;;;104.50;59.40;;;;;;;;;;5061065;28;20079;-79
2022/03/25 05:14:23;;;;;;;104.55;57.20;;;;;;;;;;5079550;28;20041;-80
2022/03/25 05:16:52;;;;;;;109.50;58.63;;;;;;;;;;5078682;28;20484;-81
2022/03/25 05:19:21;;;;;;;107.32;56.65;;;;;;;;;;5079699;28;20492;-79
2022/03/25 05:21:47;;;;;;;108.00;58.38;;;;;;;;;;5079311;28;20056;-79
2022/03/25 05:24:13;;;;;;;114.50;59.55;;;;;;;;;;5088329;28;20165;-82
2022/03/25 05:26:40;;;;;;;111.38;57.55;;;;;;;;;;5081714;28;20041;-82
2022/03/25 05:29:06;;;;;;;111.93;59.25;;;;;;;;;;5063638;28;20056;-80
2022/03/25 05:31:32;;;;;;;114.53;58.75;;;;;;;;;;5064067;28;20045;-81
2022/03/25 05:33:58;;;;;;;102.45;54.70;;;;;;;;;;5080889;28;20052;-81
2022/03/25 05:36:24;;;;;;;103.05;54.75;;;;;;;;;;5064650;28;20041;-81
2022/03/25 05:38:51;;;;;;;104.57;55.65;;;;;;;;;;5064930;28;20048;-81
2022/03/25 05:41:17;;;;;;;115.10;58.15;;;;;;;;;;5063786;28;20099;-81
2022/03/25 05:43:43;;;;;;;104.57;56.17;;;;;;;;;;5064340;28;20063;-80
2022/03/25 05:46:09;;;;;;;107.05;56.60;;;;;;;;;;5079759;28;20435;-81
2022/03/25 05:48:35;;;;;;;107.97;56.08;;;;;;;;;;5062731;28;20032;-79
2022/03/25 05:51:02;;;;;;;111.20;56.15;;;;;;;;;;5063770;28;20084;-81
2022/03/25 05:53:28;;;;;;;112.88;56.13;;;;;;;;;;5063658;28;20389;-80
2022/03/25 05:55:54;;;;;;;110.68;57.35;;;;;;;;;;5079829;28;20824;-80
2022/03/25 05:58:20;;;;;;;112.68;56.08;;;;;;;;;;5080268;28;20033;-80
2022/03/25 06:00:46;;;;;;;105.10;55.20;;;;;;;;;;5061654;28;20052;-79
2022/03/25 06:03:12;;;;;;;112.00;56.95;;;;;;;;;;5078091;28;20041;-81
2022/03/25 06:05:38;;;;;;;105.70;55.90;;;;;;;;;;5061585;28;20071;-80
2022/03/25 06:08:04;;;;;;;110.53;57.05;;;;;;;;;;5061551;28;20121;-80
2022/03/25 06:10:30;;;;;;;108.38;57.97;;;;;;;;;;5062889;28;20052;-80
2022/03/25 06:12:56;;;;;;;109.75;57.28;;;;;;;;;;5064795;28;20037;-80
2022/03/25 06:15:22;;;;;;;110.32;56.40;;;;;;;;;;5088130;28;20092;-80
2022/03/25 06:17:49;;;;;;;114.32;56.75;;;;;;;;;;5076670;28;20037;-80
2022/03/25 06:20:18;;;;;;;108.88;57.38;;;;;;;;;;5061921;28;20037;-80
2022/03/25 06:22:44;;;;;;;109.97;57.90;;;;;;;;;;5061394;28;20032;-80
2022/03/25 06:25:14;;;;;;;104.05;55.90;;;;;;;;;;5060964;28;20110;-80
2022/03/25 06:27:49;;;;;;;110.65;57.53;;;;;;;;;;5062975;28;20041;-79
2022/03/25 06:30:15;;;;;;;108.95;57.40;;;;;;;;;;5089525;28;20053;-80
2022/03/25 06:32:42;;;;;;;102.40;56.03;;;;;;;;;;5061193;28;20063;-80
2022/03/25 06:35:08;;;;;;;112.43;59.60;;;;;;;;;;5061191;28;20415;-80
2022/03/25 06:37:34;;;;;;;107.53;57.33;;;;;;;;;;5061749;28;20116;-78
2022/03/25 06:40:00;;;;;;;108.10;54.88;;;;;;;;;;5064662;28;20037;-80
2022/03/25 06:42:26;;;;;;;101.47;55.63;;;;;;;;;;5078715;28;20049;-80
2022/03/25 06:44:52;;;;;;;101.13;54.67;;;;;;;;;;5060823;28;20068;-80
2022/03/25 06:47:18;;;;;;;102.90;54.08;;;;;;;;;;5060991;28;20052;-80
2022/03/25 06:49:44;;;;;;;97.55;52.45;;;;;;;;;;5061504;28;20120;-79
2022/03/25 06:52:11;;;;;;;99.38;52.58;;;;;;;;;;5064088;28;20060;-80
2022/03/25 06:54:37;;;;;;;102.65;53.55;;;;;;;;;;5061492;28;20053;-80
2022/03/25 06:57:03;;;;;;;103.50;54.13;;;;;;;;;;5060530;28;20106;-80
2022/03/25 06:59:29;;;;;;;100.15;54.20;;;;;;;;;;5061416;28;20040;-80
2022/03/25 07:01:55;;;;;;;99.80;52.10;;;;;;;;;;5078188;28;20053;-80
2022/03/25 07:04:21;;;;;;;103.47;53.97;;;;;;;;;;5084949;28;20144;-78
2022/03/25 07:06:48;;;;;;;97.20;52.97;;;;;;;;;;5075027;28;20052;-79
2022/03/25 07:09:14;;;;;;;99.63;53.50;;;;;;;;;;5087193;28;20079;-80
2022/03/25 07:11:41;;;;;;;97.93;50.78;;;;;;;;;;5062597;28;20045;-81
2022/03/25 07:14:07;;;;;;;97.30;50.47;;;;;;;;;;5074390;28;20040;-78
2022/03/25 07:16:33;;;;;;;94.00;50.28;;;;;;;;;;5092415;28;20067;-79
2022/03/25 07:19:01;;;;;;;89.78;48.60;;;;;;;;;;5075138;28;20032;-79
2022/03/25 07:21:28;;;;;;;93.40;50.70;;;;;;;;;;5079303;28;20052;-80
2022/03/25 07:23:54;;;;;;;94.10;50.00;;;;;;;;;;5077604;28;20056;-80
2022/03/25 07:26:20;;;;;;;93.93;49.05;;;;;;;;;;5077795;28;20446;-79
2022/03/25 07:28:47;;;;;;;82.90;47.85;;;;;;;;;;5060544;28;20082;-80
2022/03/25 07:31:13;;;;;;;82.95;46.70;;;;;;;;;;5077054;28;20045;-78
2022/03/25 07:33:39;;;;;;;88.68;47.75;;;;;;;;;;5057223;28;20041;-77
2022/03/25 07:36:05;;;;;;;88.32;46.58;;;;;;;;;;5078324;28;20379;-78
2022/03/25 07:38:31;;;;;;;82.85;47.10;;;;;;;;;;5073062;28;20037;-77
2022/03/25 07:40:57;;;;;;;80.57;45.95;;;;;;;;;;5056957;28;20066;-77
2022/03/25 07:43:23;;;;;;;79.95;46.40;;;;;;;;;;5056943;28;20368;-77
2022/03/25 07:45:49;;;;;;;82.45;46.13;;;;;;;;;;5075101;28;20044;-80
2022/03/25 07:48:15;;;;;;;85.75;45.92;;;;;;;;;;5083578;28;20048;-78
2022/03/25 07:50:41;;;;;;;86.05;44.97;;;;;;;;;;5076632;28;20048;-79
2022/03/25 07:53:07;;;;;;;79.15;43.53;;;;;;;;;;5077035;28;20051;-79
2022/03/25 07:55:33;;;;;;;82.57;42.88;;;;;;;;;;5059610;28;20092;-79
2022/03/25 07:57:59;;;;;;;80.35;43.40;;;;;;;;;;5057980;28;20047;-79
2022/03/25 08:00:25;;;;;;;81.75;42.72;;;;;;;;;;5074678;28;20116;-79
2022/03/25 08:02:52;;;;;;;73.90;42.08;;;;;;;;;;5062000;28;20033;-78
2022/03/25 08:05:18;;;;;;;80.72;41.35;;;;;;;;;;5083694;28;20045;-78
2022/03/25 08:07:48;;;;;;;77.38;39.95;;;;;;;;;;5077296;28;20431;-79
2022/03/25 08:10:18;;;;;;;68.82;39.20;;;;;;;;;;5058399;28;20456;-79
2022/03/25 08:12:44;;;;;;;70.03;39.58;;;;;;;;;;5058912;28;20045;-79
2022/03/25 08:15:10;;;;;;;77.63;39.33;;;;;;;;;;5074746;28;20120;-79
2022/03/25 08:17:54;;;;;;;73.88;39.20;;;;;;;;;;5058170;28;20430;-79
2022/03/25 08:20:21;;;;;;;72.25;39.47;;;;;;;;;;5058073;28;20092;-80
2022/03/25 08:22:47;;;;;;;74.60;39.35;;;;;;;;;;5057826;28;20368;-80
2022/03/25 08:28:00;;;;;;;73.55;38.58;;;;;;;;;;5071321;28;20037;-79
2022/03/25 08:30:27;;;;;;;73.32;39.30;;;;;;;;;;5057571;28;20055;-79
2022/03/25 08:32:53;;;;;;;81.40;40.03;;;;;;;;;;5075602;28;20118;-78
2022/03/25 08:35:19;;;;;;;66.80;37.88;;;;;;;;;;5062439;28;20045;-78
2022/03/25 08:37:45;;;;;;;68.80;39.40;;;;;;;;;;5055690;28;20040;-79
2022/03/25 08:40:12;;;;;;;68.47;37.95;;;;;;;;;;5057668;28;20040;-79
2022/03/25 08:42:38;;;;;;;72.80;39.47;;;;;;;;;;5079289;28;20499;-79
2022/03/25 08:45:04;;;;;;;67.82;39.03;;;;;;;;;;5074845;28;20543;-79
2022/03/25 08:47:30;;;;;;;70.93;39.20;;;;;;;;;;5065537;28;20044;-77
2022/03/25 08:49:56;;;;;;;67.25;40.17;;;;;;;;;;5071670;28;20045;-79
2022/03/25 08:52:22;;;;;;;71.85;40.92;;;;;;;;;;5069556;28;20037;-77
2022/03/25 08:54:48;;;;;;;73.55;40.63;;;;;;;;;;5068647;28;20045;-78
2022/03/25 08:57:14;;;;;;;73.68;39.88;;;;;;;;;;5082322;28;20132;-78
2022/03/25 08:59:40;;;;;;;76.43;40.38;;;;;;;;;;5063621;28;20033;-79
2022/03/25 09:02:06;;;;;;;79.50;42.45;;;;;;;;;;5067823;28;20163;-78
2022/03/25 09:04:32;;;;;;;74.97;42.47;;;;;;;;;;5084365;28;20037;-79
2022/03/25 09:06:59;;;;;;;75.70;43.00;;;;;;;;;;5079688;28;20056;-80
2022/03/25 09:09:25;;;;;;;82.35;43.55;;;;;;;;;;5061848;28;20089;-79
2022/03/25 09:11:51;;;;;;;83.70;43.42;;;;;;;;;;5078160;28;20068;-79
2022/03/25 09:14:17;;;;;;;82.40;42.75;;;;;;;;;;5061024;28;20045;-79
2022/03/25 09:16:44;;;;;;;75.95;44.15;;;;;;;;;;5077886;28;20368;-78
2022/03/25 09:19:10;;;;;;;80.10;44.05;;;;;;;;;;5060507;28;20041;-80
2022/03/25 09:21:36;;;;;;;78.88;44.05;;;;;;;;;;5077669;28;20171;-81
2022/03/25 09:24:02;;;;;;;77.25;43.80;;;;;;;;;;5077529;28;20114;-79
2022/03/25 09:26:28;;;;;;;79.32;44.22;;;;;;;;;;5060894;28;20041;-79
2022/03/25 09:28:54;;;;;;;78.85;44.10;;;;;;;;;;5077482;28;20045;-80
2022/03/25 09:31:20;;;;;;;78.20;41.90;;;;;;;;;;5079689;28;20333;-79
2022/03/25 09:33:46;;;;;;;72.28;41.63;;;;;;;;;;5062636;28;20056;-80
2022/03/25 09:36:14;;;;;;;76.35;42.53;;;;;;;;;;5061296;28;20111;-80
2022/03/25 09:38:40;;;;;;;70.10;41.78;;;;;;;;;;5077394;28;20037;-81
2022/03/25 09:41:07;;;;;;;70.18;40.40;;;;;;;;;;5060583;28;20040;-80
2022/03/25 09:43:37;;;;;;;65.57;37.58;;;;;;;;;;5061224;28;20071;-80
2022/03/25 09:46:03;;;;;;;80.55;38.88;;;;;;;;;;5060037;28;20452;-79
2022/03/25 09:48:29;;;;;;;69.25;36.35;;;;;;;;;;5079982;28;20193;-81
2022/03/25 09:50:55;;;;;;;66.35;38.25;;;;;;;;;;5076563;28;20060;-80
2022/03/25 09:53:21;;;;;;;66.47;37.00;;;;;;;;;;5059845;28;20095;-80
2022/03/25 09:55:48;;;;;;;67.53;36.55;;;;;;;;;;5076658;28;20075;-80
2022/03/25 09:58:22;;;;;;;71.63;38.17;;;;;;;;;;5060578;28;20037;-79
2022/03/25 10:00:49;;;;;;;65.13;36.47;;;;;;;;;;5075932;28;20060;-80
2022/03/25 10:03:22;;;;;;;56.38;33.70;;;;;;;;;;5060673;28;20468;-80
2022/03/25 10:05:54;;;;;;;61.90;32.78;;;;;;;;;;5060580;28;20053;-80
2022/03/25 10:08:30;;;;;;;63.20;34.35;;;;;;;;;;5076597;28;20092;-79
2022/03/25 10:11:17;;;;;;;55.60;30.95;;;;;;;;;;5059581;28;20441;-81
2022/03/25 10:13:43;;;;;;;53.60;28.92;;;;;;;;;;5060602;28;20092;-80
2022/03/25 10:16:41;;;;;;;53.47;28.40;;;;;;;;;;5076236;28;20412;-80
2022/03/25 10:19:10;;;;;;;51.63;27.55;;;;;;;;;;5027443;28;20360;-80
2022/03/25 10:21:55;;;;;;;49.63;25.38;;;;;;;;;;5059265;28;20033;-80
2022/03/25 10:24:36;;;;;;;47.10;25.08;;;;;;;;;;5060595;28;20508;-80
2022/03/25 10:27:04;;;;;;;44.90;24.83;;;;;;;;;;5058915;28;20115;-79
2022/03/25 10:29:30;;;;;;;47.38;23.25;;;;;;;;;;5075593;28;20060;-79
2022/03/25 10:32:03;;;;;;;43.15;23.95;;;;;;;;;;5060063;28;20103;-79
2022/03/25 10:34:29;;;;;;;47.03;24.80;;;;;;;;;;5058249;28;20063;-79
2022/03/25 10:37:02;;;;;;;44.75;24.40;;;;;;;;;;5062485;28;20037;-79
2022/03/25 10:39:28;;;;;;;46.67;24.02;;;;;;;;;;5058015;28;20383;-78
2022/03/25 10:41:57;;;;;;;49.88;24.40;;;;;;;;;;5058600;28;20380;-79
2022/03/25 10:44:32;;;;;;;41.05;22.63;;;;;;;;;;5060211;28;20053;-78
2022/03/25 10:46:58;;;;;;;45.88;23.52;;;;;;;;;;5058550;28;20048;-77
2022/03/25 10:49:24;;;;;;;43.38;22.35;;;;;;;;;;5079380;28;20041;-79
2022/03/25 10:52:00;;;;;;;43.83;23.23;;;;;;;;;;5065648;28;20048;-78
2022/03/25 10:54:26;;;;;;;39.85;21.98;;;;;;;;;;5065855;28;20463;-78
2022/03/25 10:56:53;;;;;;;41.35;21.13;;;;;;;;;;5076544;28;20045;-80
2022/03/25 10:59:20;;;;;;;41.50;21.90;;;;;;;;;;5075403;28;20036;-79
2022/03/25 11:01:46;;;;;;;44.45;22.42;;;;;;;;;;5058109;28;20144;-78
2022/03/25 11:04:12;;;;;;;40.17;21.05;;;;;;;;;;5074955;28;20045;-78
2022/03/25 11:06:39;;;;;;;39.95;21.05;;;;;;;;;;5058427;28;20041;-80
2022/03/25 11:09:05;;;;;;;40.72;20.90;;;;;;;;;;5074612;28;20352;-79
2022/03/25 11:11:31;;;;;;;47.97;23.27;;;;;;;;;;5076519;28;20045;-78
2022/03/25 11:13:57;;;;;;;38.95;23.63;;;;;;;;;;5062846;28;20037;-80
2022/03/25 11:16:23;;;;;;;43.00;22.40;;;;;;;;;;5077496;28;20029;-80
2022/03/25 11:18:49;;;;;;;40.40;21.95;;;;;;;;;;5075660;28;20047;-81
2022/03/25 11:21:15;;;;;;;41.50;23.10;;;;;;;;;;5075320;28;20040;-80
2022/03/25 11:23:46;;;;;;;45.97;24.02;;;;;;;;;;5058165;28;20064;-79
2022/03/25 11:26:13;;;;;;;40.15;24.05;;;;;;;;;;5058168;28;20123;-79
2022/03/25 11:28:39;;;;;;;46.42;23.38;;;;;;;;;;5058466;28;20061;-79
2022/03/25 11:31:05;;;;;;;46.45;23.67;;;;;;;;;;5074434;28;20056;-79
2022/03/25 11:33:31;;;;;;;42.85;23.00;;;;;;;;;;5073945;28;20048;-78
2022/03/25 11:36:15;;;;;;;48.03;23.88;;;;;;;;;;5057427;28;20033;-78
2022/03/25 11:38:44;;;;;;;48.55;25.45;;;;;;;;;;5057067;28;20044;-79
2022/03/25 11:41:26;;;;;;;47.78;24.73;;;;;;;;;;5074531;28;20049;-78
2022/03/25 11:44:11;;;;;;;43.25;24.38;;;;;;;;;;5073841;28;20041;-79
2022/03/25 11:46:57;;;;;;;40.70;23.00;;;;;;;;;;5058970;28;20044;-79
2022/03/25 11:49:23;;;;;;;45.95;24.75;;;;;;;;;;5057463;28;20044;-80
2022/03/25 11:51:49;;;;;;;40.78;23.17;;;;;;;;;;5058270;28;20037;-80
2022/03/25 11:54:34;;;;;;;45.83;24.58;;;;;;;;;;5059235;28;20072;-79
2022/03/25 11:57:00;;;;;;;45.17;24.42;;;;;;;;;;5059107;28;20068;-80
2022/03/25 11:59:26;;;;;;;43.05;25.23;;;;;;;;;;5076082;28;20048;-77
2022/03/25 12:01:59;;;;;;;42.88;23.90;;;;;;;;;;5066531;28;20044;-77
2022/03/25 12:04:25;;;;;;;;;;;;;;;;;;5070221;28;20052;-77
2022/03/25 12:07:01;;;;;;;47.03;26.10;;;;;;;;;;5061222;28;19908;-80
2022/03/25 12:09:34;;;;;;;41.97;23.83;;;;;;;;;;5073889;28;20044;-78
2022/03/25 12:12:00;;;;;;;40.35;21.23;;;;;;;;;;5073090;28;20045;-78
2022/03/25 12:14:31;;;;;;;35.22;17.65;;;;;;;;;;5057283;28;20167;-79
2022/03/25 12:17:00;;;;;;;33.10;15.40;;;;;;;;;;5058688;28;20101;-79
2022/03/25 12:19:26;;;;;;;31.98;14.88;;;;;;;;;;5062241;28;20037;-78
2022/03/25 12:21:58;;;;;;;31.67;14.35;;;;;;;;;;5059908;28;20044;-79
2022/03/25 12:24:25;;;;;;;31.83;15.35;;;;;;;;;;5056987;28;20128;-79
2022/03/25 12:26:55;;;;;;;30.60;15.45;;;;;;;;;;5076000;28;20045;-79
2022/03/25 12:29:21;;;;;;;32.40;15.50;;;;;;;;;;5067368;28;20101;-78
2022/03/25 12:31:50;;;;;;;31.48;15.15;;;;;;;;;;5067820;28;20057;-78
2022/03/25 12:34:16;;;;;;;29.88;14.85;;;;;;;;;;5078173;28;20105;-78
2022/03/25 12:36:49;;;;;;;29.23;14.80;;;;;;;;;;5057483;28;20411;-80
2022/03/25 12:39:15;;;;;;;;;;;;;;;;;;5058325;28;20044;-80
2022/03/25 12:41:51;;;;;;;33.63;16.77;;;;;;;;;;5059114;28;19909;-80
2022/03/25 12:44:25;;;;;;;31.95;17.05;;;;;;;;;;5057271;28;20076;-80
2022/03/25 12:46:52;;;;;;;34.47;18.60;;;;;;;;;;5076193;28;20044;-78
2022/03/25 12:49:18;;;;;;;31.70;16.90;;;;;;;;;;5078757;28;20127;-78
2022/03/25 12:51:54;;;;;;;34.20;16.58;;;;;;;;;;5062561;28;20040;-79
2022/03/25 12:54:20;;;;;;;30.55;15.65;;;;;;;;;;5078759;28;20364;-78
2022/03/25 12:56:59;;;;;;;29.98;16.45;;;;;;;;;;5079942;28;20045;-78
2022/03/25 12:59:32;;;;;;;34.10;17.75;;;;;;;;;;5063520;28;20037;-79
2022/03/25 13:01:58;;;;;;;35.92;17.92;;;;;;;;;;5062654;28;20052;-79
2022/03/25 13:04:30;;;;;;;36.05;19.05;;;;;;;;;;5076450;28;20037;-79
2022/03/25 13:06:59;;;;;;;34.85;17.83;;;;;;;;;;5060966;28;20037;-79
2022/03/25 13:09:25;;;;;;;35.33;18.83;;;;;;;;;;5061307;28;20045;-79
2022/03/25 13:11:56;;;;;;;35.63;19.52;;;;;;;;;;5066310;28;20049;-79
2022/03/25 13:14:23;;;;;;;35.38;19.17;;;;;;;;;;5062732;28;20463;-79
2022/03/25 13:16:49;;;;;;;39.17;19.33;;;;;;;;;;5056059;28;20067;-79
2022/03/25 13:19:16;;;;;;;33.78;19.20;;;;;;;;;;5073516;28;20059;-81
2022/03/25 13:21:43;;;;;;;34.50;17.73;;;;;;;;;;5057117;28;20097;-80
2022/03/25 13:24:09;;;;;;;36.80;19.30;;;;;;;;;;5072302;28;20060;-79
2022/03/25 13:26:36;;;;;;;36.72;19.77;;;;;;;;;;5072243;28;20045;-79
2022/03/25 13:29:02;;;;;;;33.00;20.52;;;;;;;;;;5055058;28;20081;-78
2022/03/25 13:31:28;;;;;;;39.42;21.25;;;;;;;;;;5055118;28;20037;-78
2022/03/25 13:33:55;;;;;;;35.25;21.05;;;;;;;;;;5057174;28;20047;-80
2022/03/25 13:36:25;;;;;;;33.28;19.10;;;;;;;;;;5075963;28;20066;-79
2022/03/25 13:38:51;;;;;;;38.55;20.05;;;;;;;;;;5075229;28;20037;-77
2022/03/25 13:41:17;;;;;;;38.67;20.02;;;;;;;;;;5058158;28;20484;-78
2022/03/25 13:43:44;;;;;;;39.45;18.65;;;;;;;;;;5059180;28;20041;-78
2022/03/25 13:46:11;;;;;;;32.55;17.40;;;;;;;;;;5058380;28;20104;-78
2022/03/25 13:48:41;;;;;;;32.00;17.15;;;;;;;;;;5056939;28;20033;-79
2022/03/25 13:51:20;;;;;;;30.42;17.88;;;;;;;;;;5074798;28;20049;-78
2022/03/25 13:53:46;;;;;;;40.10;18.90;;;;;;;;;;5058038;28;20049;-78
2022/03/25 13:56:16;;;;;;;37.92;20.23;;;;;;;;;;5057255;28;20052;-79
2022/03/25 13:58:48;;;;;;;34.40;20.60;;;;;;;;;;5058475;28;20073;-80
2022/03/25 14:01:14;;;;;;;30.25;15.68;;;;;;;;;;5077220;28;20040;-79
2022/03/25 14:03:40;;;;;;;31.48;16.20;;;;;;;;;;5077945;28;20047;-78
2022/03/25 14:06:13;;;;;;;32.75;15.88;;;;;;;;;;5061414;28;20065;-80
2022/03/25 14:08:39;;;;;;;29.10;16.90;;;;;;;;;;5078280;28;20071;-79
2022/03/25 14:11:07;;;;;;;32.35;19.10;;;;;;;;;;5078145;28;20341;-81
2022/03/25 14:13:33;;;;;;;34.90;20.23;;;;;;;;;;5060886;28;20040;-79
2022/03/25 14:16:15;;;;;;;35.42;19.85;;;;;;;;;;5061385;28;20047;-80